Time;durP1;ratioP1;P1;durP2;ratioP2;P2;SDS_P1;SDS_P2;PMS_P1;PMS_P2;Temp;Humidity;BMP_temperature;BMP_pressure;BME280_temperature;BME280_humidity;BME280_pressure;Samples;Min_cycle;Max_cycle;Signal;HPM_P1;HPM_P2
2021/11/23 00:00:27;;;;;;;31.13;13.90;;;1.20;99.90;;;;;;4448817;27;659429;-71
2021/11/23 00:03:18;;;;;;;29.10;13.87;;;1.20;99.90;;;;;;4465780;27;657655;-70
2021/11/23 00:06:06;;;;;;;38.83;13.70;;;1.20;99.90;;;;;;4447337;27;657490;-71
2021/11/23 00:08:53;;;;;;;36.37;13.50;;;1.20;99.90;;;;;;4468550;28;658036;-70
2021/11/23 00:11:41;;;;;;;35.67;14.60;;;1.30;99.90;;;;;;4447013;28;658979;-71
2021/11/23 00:14:28;;;;;;;32.13;13.97;;;1.30;99.90;;;;;;4464998;28;658523;-71
2021/11/23 00:17:16;;;;;;;26.40;13.47;;;1.30;99.90;;;;;;4444257;28;657432;-71
2021/11/23 00:20:07;;;;;;;30.03;13.30;;;1.30;99.90;;;;;;4458406;28;658398;-71
2021/11/23 00:22:55;;;;;;;30.70;13.93;;;1.20;99.90;;;;;;4431931;28;657586;-70
2021/11/23 00:25:43;;;;;;;31.55;13.10;;;1.20;99.90;;;;;;4441598;28;657820;-70
2021/11/23 00:28:30;;;;;;;27.07;12.67;;;1.20;99.90;;;;;;4451585;27;657684;-70
2021/11/23 00:31:18;;;;;;;46.23;13.40;;;1.30;99.90;;;;;;4474403;27;661131;-71
2021/11/23 00:34:06;;;;;;;28.73;12.77;;;1.30;99.90;;;;;;4461389;27;657649;-71
2021/11/23 00:36:55;;;;;;;29.10;12.87;;;1.40;99.90;;;;;;4474619;27;658131;-71
2021/11/23 00:39:44;;;;;;;28.87;13.13;;;1.40;99.90;;;;;;4437888;27;658300;-71
2021/11/23 00:42:32;;;;;;;28.90;12.90;;;1.40;99.90;;;;;;4447904;27;657292;-71
2021/11/23 00:45:19;;;;;;;34.53;15.03;;;1.40;99.90;;;;;;4458957;27;659674;-71
2021/11/23 00:48:07;;;;;;;32.30;14.27;;;1.40;99.90;;;;;;4447328;27;657553;-71
2021/11/23 00:50:54;;;;;;;30.47;14.03;;;1.40;99.90;;;;;;4468262;27;657475;-71
2021/11/23 00:53:44;;;;;;;26.20;12.57;;;1.40;99.90;;;;;;4442493;27;657687;-71
2021/11/23 00:56:31;;;;;;;28.53;11.83;;;1.40;99.90;;;;;;4448682;27;657989;-71
2021/11/23 00:59:19;;;;;;;21.73;10.53;;;1.30;99.90;;;;;;4464976;27;659325;-71
2021/11/23 01:02:06;;;;;;;27.67;12.23;;;1.30;99.90;;;;;;4447239;27;658266;-71
2021/11/23 01:04:54;;;;;;;29.97;12.20;;;1.40;99.90;;;;;;4461798;27;658606;-71
2021/11/23 01:07:42;;;;;;;28.20;12.60;;;1.40;99.90;;;;;;4442738;27;658134;-71
2021/11/23 01:10:32;;;;;;;26.93;12.40;;;1.50;99.90;;;;;;4464894;27;658044;-71
2021/11/23 01:13:19;;;;;;;23.90;11.73;;;1.50;99.90;;;;;;4446467;27;658761;-71
2021/11/23 01:16:07;;;;;;;22.47;11.30;;;1.50;99.90;;;;;;4446881;27;658009;-71
2021/11/23 01:18:55;;;;;;;25.20;11.40;;;1.50;99.90;;;;;;4471297;27;658049;-71
2021/11/23 01:21:43;;;;;;;22.03;10.70;;;1.60;99.90;;;;;;4452422;27;658557;-71
2021/11/23 01:24:30;;;;;;;24.10;10.30;;;1.50;99.90;;;;;;4449479;27;657578;-71
2021/11/23 01:27:20;;;;;;;20.00;9.70;;;1.50;99.90;;;;;;4479227;27;659032;-71
2021/11/23 01:30:08;;;;;;;16.60;8.47;;;1.50;99.90;;;;;;4445207;27;658760;-71
2021/11/23 01:32:56;;;;;;;21.57;9.10;;;1.50;99.90;;;;;;4446313;28;656655;-71
2021/11/23 01:35:44;;;;;;;20.80;9.23;;;1.50;99.90;;;;;;4474010;27;657419;-71
2021/11/23 01:38:32;;;;;;;20.50;9.07;;;1.50;99.90;;;;;;4444548;27;658404;-71
2021/11/23 01:41:20;;;;;;;19.20;8.47;;;1.50;99.90;;;;;;4476266;27;657454;-71
2021/11/23 01:44:09;;;;;;;21.97;9.80;;;1.60;99.90;;;;;;4446260;27;658073;-71
2021/11/23 01:46:57;;;;;;;17.80;8.77;;;1.50;99.90;;;;;;4454935;27;656552;-71
2021/11/23 01:49:44;;;;;;;22.50;9.43;;;1.50;99.90;;;;;;4462143;27;656982;-71
2021/11/23 01:52:32;;;;;;;22.53;10.00;;;1.50;99.90;;;;;;4437765;28;657379;-71
2021/11/23 01:55:20;;;;;;;27.33;10.63;;;1.50;99.90;;;;;;4463821;27;658783;-71
2021/11/23 01:58:07;;;;;;;20.20;10.30;;;1.50;99.90;;;;;;4441641;28;658999;-71
2021/11/23 02:00:57;;;;;;;27.10;11.97;;;1.50;99.90;;;;;;4460535;27;657621;-71
2021/11/23 02:03:45;;;;;;;29.80;12.17;;;1.50;99.90;;;;;;4458850;27;657591;-71
2021/11/23 02:06:32;;;;;;;24.27;11.97;;;1.50;99.90;;;;;;4440984;28;659442;-71
2021/11/23 02:09:20;;;;;;;24.73;11.57;;;1.50;99.90;;;;;;4462793;27;658783;-71
2021/11/23 02:12:08;;;;;;;22.47;11.20;;;1.40;99.90;;;;;;4465495;27;659322;-71
2021/11/23 02:15:01;;;;;;;28.73;12.87;;;1.50;99.90;;;;;;4446064;27;657774;-71
2021/11/23 02:17:51;;;;;;;23.93;11.60;;;1.50;99.90;;;;;;4441875;28;658559;-71
2021/11/23 02:20:40;;;;;;;21.97;10.83;;;1.50;99.90;;;;;;4452218;27;657821;-71
2021/11/23 02:23:30;;;;;;;25.77;11.50;;;1.50;99.90;;;;;;4451109;28;659026;-71
2021/11/23 02:26:19;;;;;;;24.73;11.23;;;1.50;99.90;;;;;;4443737;28;658863;-71
2021/11/23 02:29:08;;;;;;;21.93;9.73;;;1.40;99.90;;;;;;4452366;28;657842;-71
2021/11/23 02:31:58;;;;;;;21.53;9.83;;;1.40;99.90;;;;;;4464449;28;656690;-71
2021/11/23 02:34:47;;;;;;;20.70;9.80;;;1.50;99.90;;;;;;4463477;28;656838;-71
2021/11/23 02:37:42;;;;;;;22.97;10.00;;;1.50;99.90;;;;;;4467053;28;656589;-71
2021/11/23 02:40:30;;;;;;;19.93;9.60;;;1.50;99.90;;;;;;4455850;28;657542;-71
2021/11/23 02:43:21;;;;;;;21.08;9.38;;;1.40;99.90;;;;;;4448077;28;657618;-71
2021/11/23 02:46:10;;;;;;;19.27;8.80;;;1.40;99.90;;;;;;4450361;28;657178;-71
2021/11/23 02:48:58;;;;;;;18.70;8.90;;;1.40;99.90;;;;;;4440965;28;657086;-71
2021/11/23 02:51:48;;;;;;;16.67;8.47;;;1.40;99.90;;;;;;4447843;28;656620;-71
2021/11/23 02:54:39;;;;;;;17.60;8.23;;;1.30;99.90;;;;;;4440874;28;656499;-71
2021/11/23 02:57:28;;;;;;;18.83;8.30;;;1.30;99.90;;;;;;4458523;28;658277;-70
2021/11/23 03:00:19;;;;;;;16.23;7.57;;;1.40;99.90;;;;;;4446239;28;656540;-71
2021/11/23 03:03:08;;;;;;;14.37;6.50;;;1.30;99.90;;;;;;4451027;27;656565;-71
2021/11/23 03:05:58;;;;;;;14.60;6.73;;;1.30;99.90;;;;;;4449330;28;656717;-71
2021/11/23 03:08:46;;;;;;;14.00;6.73;;;1.30;99.90;;;;;;4447033;27;656135;-71
2021/11/23 03:11:35;;;;;;;13.43;6.47;;;1.30;99.90;;;;;;4464355;27;657216;-71
2021/11/23 03:14:22;;;;;;;13.03;6.23;;;1.30;99.90;;;;;;4444759;27;658085;-71
2021/11/23 03:17:10;;;;;;;10.70;5.30;;;1.30;99.90;;;;;;4472559;27;656486;-71
2021/11/23 03:19:57;;;;;;;11.80;5.13;;;1.30;99.90;;;;;;4442892;27;656959;-71
2021/11/23 03:22:46;;;;;;;10.10;4.23;;;1.30;99.90;;;;;;4464474;27;656476;-71
2021/11/23 03:25:33;;;;;;;9.97;4.90;;;1.20;99.90;;;;;;4475023;27;657276;-71
2021/11/23 03:28:22;;;;;;;9.53;4.27;;;1.20;99.90;;;;;;4449485;27;656520;-70
2021/11/23 03:31:11;;;;;;;8.57;4.23;;;1.30;99.90;;;;;;4464229;27;655400;-71
2021/11/23 03:33:58;;;;;;;9.20;4.23;;;1.30;99.90;;;;;;4477510;27;655670;-71
2021/11/23 03:36:46;;;;;;;10.30;4.70;;;1.30;99.90;;;;;;4441855;27;655297;-71
2021/11/23 03:39:38;;;;;;;7.28;3.67;;;1.30;99.90;;;;;;4467912;27;658487;-71
2021/11/23 03:42:26;;;;;;;7.97;4.00;;;1.20;99.90;;;;;;4449632;28;655880;-71
2021/11/23 03:45:16;;;;;;;12.10;4.17;;;1.20;99.90;;;;;;4466832;28;655573;-71
2021/11/23 03:48:05;;;;;;;7.60;3.57;;;1.20;99.90;;;;;;4439674;28;656935;-71
2021/11/23 03:50:54;;;;;;;7.00;3.83;;;1.20;99.90;;;;;;4439399;28;656786;-71
2021/11/23 03:53:43;;;;;;;8.17;4.10;;;1.30;99.90;;;;;;4448825;28;655968;-71
2021/11/23 03:56:33;;;;;;;7.22;3.90;;;1.30;99.90;;;;;;4448177;28;656443;-70
2021/11/23 03:59:21;;;;;;;9.67;3.90;;;1.30;99.90;;;;;;4459652;27;655779;-70
2021/11/23 04:02:10;;;;;;;6.73;3.23;;;1.30;99.90;;;;;;4469874;27;656262;-71
2021/11/23 04:04:58;;;;;;;9.47;3.87;;;1.30;99.90;;;;;;4443296;27;655554;-71
2021/11/23 04:07:47;;;;;;;6.87;3.70;;;1.20;99.90;;;;;;4452137;27;655595;-71
2021/11/23 04:10:36;;;;;;;6.67;3.60;;;1.30;99.90;;;;;;4472503;27;655488;-71
2021/11/23 04:13:23;;;;;;;9.47;3.57;;;1.30;99.90;;;;;;4474591;27;655781;-71
2021/11/23 04:16:11;;;;;;;6.93;3.40;;;1.30;99.90;;;;;;4456288;27;655479;-71
2021/11/23 04:19:00;;;;;;;6.33;3.37;;;1.30;99.90;;;;;;4465677;27;655957;-71
2021/11/23 04:21:48;;;;;;;8.10;3.67;;;1.30;99.90;;;;;;4446907;27;656106;-71
2021/11/23 04:24:36;;;;;;;5.57;3.10;;;1.30;99.90;;;;;;4455073;27;655901;-71
2021/11/23 04:27:23;;;;;;;5.13;3.33;;;1.30;99.90;;;;;;4466320;27;656651;-71
2021/11/23 04:30:12;;;;;;;5.33;3.30;;;1.30;99.90;;;;;;4450185;27;655437;-71
2021/11/23 04:33:00;;;;;;;5.70;3.20;;;1.20;99.90;;;;;;4465349;27;656598;-71
2021/11/23 04:35:49;;;;;;;7.73;3.43;;;1.20;99.90;;;;;;4437748;27;657203;-71
2021/11/23 04:38:36;;;;;;;7.37;2.83;;;1.20;99.90;;;;;;4448511;27;655525;-71
2021/11/23 04:41:24;;;;;;;6.50;3.67;;;1.10;99.90;;;;;;4468372;27;655889;-71
2021/11/23 04:44:12;;;;;;;6.27;3.80;;;1.20;99.90;;;;;;4445019;27;655375;-70
2021/11/23 04:46:59;;;;;;;7.37;3.90;;;1.20;99.90;;;;;;4447460;28;655833;-71
2021/11/23 04:49:47;;;;;;;6.83;3.90;;;1.20;99.90;;;;;;4431731;28;656422;-71
2021/11/23 04:52:36;;;;;;;7.75;4.05;;;1.20;99.90;;;;;;4450541;28;656154;-71
2021/11/23 04:55:24;;;;;;;7.88;3.90;;;1.20;99.90;;;;;;4426732;28;657087;-71
2021/11/23 04:58:12;;;;;;;6.90;3.77;;;1.20;99.90;;;;;;4431586;27;655438;-71
2021/11/23 05:00:59;;;;;;;5.35;3.50;;;1.20;99.90;;;;;;4442292;28;655686;-71
2021/11/23 05:03:47;;;;;;;6.77;3.97;;;1.20;99.90;;;;;;4429205;28;656093;-71
2021/11/23 05:06:35;;;;;;;5.05;3.70;;;1.20;99.90;;;;;;4447477;28;655825;-71
2021/11/23 05:09:24;;;;;;;9.47;4.47;;;1.20;99.90;;;;;;4432306;27;657265;-70
2021/11/23 05:12:11;;;;;;;5.93;3.63;;;1.10;99.90;;;;;;4429507;28;655349;-71
2021/11/23 05:14:59;;;;;;;6.90;3.60;;;1.10;99.90;;;;;;4448011;28;655543;-71
2021/11/23 05:17:47;;;;;;;8.83;4.20;;;1.10;99.90;;;;;;4429298;28;655790;-71
2021/11/23 05:20:34;;;;;;;7.30;4.30;;;1.10;99.90;;;;;;4456669;27;655449;-70
2021/11/23 05:23:22;;;;;;;8.13;4.33;;;1.20;99.90;;;;;;4431799;28;655540;-71
2021/11/23 05:26:11;;;;;;;10.37;4.00;;;1.10;99.90;;;;;;4458188;27;655258;-71
2021/11/23 05:28:58;;;;;;;9.13;4.77;;;1.20;99.90;;;;;;4431590;27;658036;-71
2021/11/23 05:31:46;;;;;;;9.43;3.63;;;1.10;99.90;;;;;;4433308;27;655579;-70
2021/11/23 05:34:34;;;;;;;10.23;4.53;;;1.10;99.90;;;;;;4457234;28;656426;-71
2021/11/23 05:37:21;;;;;;;9.60;4.63;;;1.10;99.90;;;;;;4429738;27;656336;-71
2021/11/23 05:40:10;;;;;;;12.73;5.37;;;1.00;99.90;;;;;;4455403;28;655631;-71
2021/11/23 05:42:59;;;;;;;8.80;4.30;;;1.10;99.90;;;;;;4428199;28;656943;-71
2021/11/23 05:45:47;;;;;;;10.80;5.40;;;1.10;99.90;;;;;;4438449;27;654988;-71
2021/11/23 05:48:34;;;;;;;12.97;5.53;;;1.00;99.90;;;;;;4472038;27;657778;-71
2021/11/23 05:51:22;;;;;;;11.43;5.60;;;1.00;99.90;;;;;;4448843;27;658297;-71
2021/11/23 05:54:10;;;;;;;10.63;5.57;;;1.00;99.90;;;;;;4464782;28;656985;-71
2021/11/23 05:56:57;;;;;;;14.63;5.70;;;1.00;99.90;;;;;;4442406;27;658595;-70
2021/11/23 05:59:47;;;;;;;12.33;5.90;;;1.00;99.90;;;;;;4458367;27;656469;-71
2021/11/23 06:02:35;;;;;;;11.68;6.38;;;1.10;99.90;;;;;;4464970;28;657308;-72
2021/11/23 06:05:23;;;;;;;14.60;6.33;;;1.10;99.90;;;;;;4443955;27;658203;-71
2021/11/23 06:08:29;;;;;;;14.63;6.90;;;1.00;99.90;;;;;;4449216;27;656942;-71
2021/11/23 06:11:17;;;;;;;16.37;8.40;;;1.00;99.90;;;;;;4423145;27;657769;-71
2021/11/23 06:14:04;;;;;;;20.90;9.97;;;1.00;99.90;;;;;;4463595;27;656728;-72
2021/11/23 06:16:55;;;;;;;19.40;9.13;;;1.00;99.90;;;;;;4458470;27;656581;-71
2021/11/23 06:19:42;;;;;;;19.03;9.20;;;0.90;99.90;;;;;;4448669;27;657742;-72
2021/11/23 06:22:30;;;;;;;15.07;8.80;;;0.90;99.90;;;;;;4473134;27;656507;-73
2021/11/23 06:25:17;;;;;;;18.27;9.57;;;0.80;99.90;;;;;;4443733;28;657795;-71
2021/11/23 06:28:06;;;;;;;16.13;8.47;;;0.80;99.90;;;;;;4454397;28;657054;-72
2021/11/23 06:30:53;;;;;;;21.67;9.80;;;0.70;99.90;;;;;;4465813;28;657495;-72
2021/11/23 06:33:43;;;;;;;16.53;8.93;;;0.70;99.90;;;;;;4450846;28;657245;-72
2021/11/23 06:36:31;;;;;;;16.00;8.37;;;0.60;99.90;;;;;;4458685;27;656761;-72
2021/11/23 06:39:19;;;;;;;16.17;8.27;;;0.60;99.90;;;;;;4469224;28;657716;-72
2021/11/23 06:42:07;;;;;;;18.10;8.43;;;0.50;99.90;;;;;;4453837;27;656317;-72
2021/11/23 06:44:54;;;;;;;17.90;9.23;;;0.40;99.90;;;;;;4431087;28;657405;-72
2021/11/23 06:47:42;;;;;;;19.73;8.67;;;0.40;99.90;;;;;;4426118;28;658242;-73
2021/11/23 06:50:32;;;;;;;14.27;8.30;;;0.40;99.90;;;;;;4445443;28;656428;-72
2021/11/23 06:53:21;;;;;;;16.30;7.60;;;0.40;99.90;;;;;;4432619;28;656688;-72
2021/11/23 06:56:08;;;;;;;18.47;8.47;;;0.40;99.90;;;;;;4441137;28;657251;-68
2021/11/23 06:58:56;;;;;;;12.50;7.60;;;0.40;99.90;;;;;;4423151;28;657354;-70
2021/11/23 07:01:44;;;;;;;17.17;8.50;;;0.40;99.90;;;;;;4449701;28;656589;-69
2021/11/23 07:04:32;;;;;;;17.60;7.77;;;0.40;99.90;;;;;;4421891;28;657143;-69
2021/11/23 07:07:21;;;;;;;16.90;7.40;;;0.40;99.90;;;;;;4444986;28;656416;-70
2021/11/23 07:10:11;;;;;;;16.07;6.80;;;0.40;99.90;;;;;;4408209;28;657295;-70
2021/11/23 07:12:58;;;;;;;19.30;7.37;;;0.40;99.90;;;;;;4403741;28;657001;-70
2021/11/23 07:15:46;;;;;;;13.90;7.03;;;0.40;99.90;;;;;;4424907;28;657470;-70
2021/11/23 07:18:34;;;;;;;14.20;6.50;;;0.50;99.90;;;;;;4457479;28;656801;-69
2021/11/23 07:21:22;;;;;;;17.77;7.33;;;0.50;99.90;;;;;;4430842;28;656846;-69
2021/11/23 07:24:11;;;;;;;16.73;7.50;;;0.50;99.90;;;;;;4441376;28;656335;-70
2021/11/23 07:26:59;;;;;;;18.87;8.27;;;0.50;99.90;;;;;;4419321;28;657328;-69
2021/11/23 07:29:46;;;;;;;18.67;8.60;;;0.50;99.90;;;;;;4424114;28;657266;-69
2021/11/23 07:32:35;;;;;;;15.77;8.43;;;0.50;99.90;;;;;;4444819;28;657206;-69
2021/11/23 07:35:23;;;;;;;22.83;9.07;;;0.50;99.90;;;;;;4425165;28;656367;-70
2021/11/23 07:38:11;;;;;;;20.40;9.45;;;0.50;99.90;;;;;;4424948;28;656794;-70
2021/11/23 07:41:00;;;;;;;23.37;10.30;;;0.50;99.90;;;;;;4442312;28;657901;-70
2021/11/23 07:43:47;;;;;;;22.03;9.83;;;0.50;99.90;;;;;;4422098;28;658915;-70
2021/11/23 07:46:36;;;;;;;22.67;9.70;;;0.60;99.90;;;;;;4440305;28;659233;-70
2021/11/23 07:49:23;;;;;;;17.13;6.90;;;0.80;99.90;;;;;;4449212;28;657424;-69
2021/11/23 07:52:14;;;;;;;22.13;9.80;;;0.90;99.90;;;;;;4415837;28;656644;-69
2021/11/23 07:55:03;;;;;;;23.35;9.80;;;1.00;99.90;;;;;;4417903;28;656390;-69
2021/11/23 07:57:52;;;;;;;23.30;7.77;;;1.20;99.90;;;;;;4418528;28;657106;-70
2021/11/23 08:00:40;;;;;;;22.60;8.20;;;1.30;99.90;;;;;;4448592;28;657003;-69
2021/11/23 08:03:27;;;;;;;19.87;8.47;;;1.40;99.90;;;;;;4427714;28;657272;-69
2021/11/23 08:06:16;;;;;;;23.57;8.53;;;1.50;99.90;;;;;;4440574;28;657041;-70
2021/11/23 08:09:05;;;;;;;20.97;8.93;;;1.60;99.90;;;;;;4444968;28;657768;-69
2021/11/23 08:11:52;;;;;;;17.60;8.30;;;1.80;99.90;;;;;;4426878;28;658063;-70
2021/11/23 08:14:42;;;;;;;17.80;7.67;;;2.20;99.90;;;;;;4445523;28;656908;-70
2021/11/23 08:17:30;;;;;;;17.70;8.40;;;2.40;99.90;;;;;;4442599;28;656664;-69
2021/11/23 08:20:18;;;;;;;17.23;7.90;;;2.50;99.90;;;;;;4422530;28;657990;-69
2021/11/23 08:23:06;;;;;;;17.02;7.10;;;2.80;99.90;;;;;;4424776;28;656182;-70
2021/11/23 08:25:54;;;;;;;13.50;6.63;;;3.00;99.90;;;;;;4447396;28;657202;-69
2021/11/23 08:28:42;;;;;;;11.93;6.03;;;2.70;99.90;;;;;;4423419;28;656530;-69
2021/11/23 08:31:31;;;;;;;10.73;5.33;;;2.90;99.90;;;;;;4448436;28;656672;-69
2021/11/23 08:34:21;;;;;;;17.83;6.83;;;3.10;99.90;;;;;;4423373;28;657883;-69
2021/11/23 08:37:11;;;;;;;14.93;6.93;;;3.10;99.90;;;;;;4419454;28;656852;-69
2021/11/23 08:39:58;;;;;;;14.40;6.73;;;3.20;99.90;;;;;;4416538;28;657155;-69
2021/11/23 08:42:46;;;;;;;14.07;6.60;;;3.40;99.90;;;;;;4421559;28;656840;-69
2021/11/23 08:45:34;;;;;;;10.00;4.53;;;3.10;99.90;;;;;;4439641;28;657141;-69
2021/11/23 08:48:23;;;;;;;11.50;5.63;;;3.30;99.90;;;;;;4405849;28;656616;-70
2021/11/23 08:51:15;;;;;;;14.83;5.97;;;3.50;99.90;;;;;;4401434;28;657012;-70
2021/11/23 08:54:03;;;;;;;7.63;3.83;;;3.60;99.90;;;;;;4400871;28;657570;-69
2021/11/23 08:57:00;;;;;;;10.30;4.60;;;3.80;99.90;;;;;;4406979;28;655739;-70
2021/11/23 08:59:49;;;;;;;11.10;3.60;;;3.80;99.90;;;;;;4406721;28;657136;-69
2021/11/23 09:02:37;;;;;;;12.17;4.67;;;4.20;99.90;;;;;;4406955;28;656664;-69
2021/11/23 09:05:26;;;;;;;9.53;4.37;;;4.20;99.90;;;;;;4426243;28;656835;-69
2021/11/23 09:08:14;;;;;;;6.80;2.93;;;4.50;99.90;;;;;;4405163;28;656817;-69
2021/11/23 09:11:01;;;;;;;10.13;4.10;;;4.40;99.90;;;;;;4407222;28;655404;-69
2021/11/23 09:13:49;;;;;;;11.40;3.73;;;4.80;99.90;;;;;;4426477;28;657039;-69
2021/11/23 09:16:37;;;;;;;12.07;3.47;;;4.90;99.90;;;;;;4397995;28;656553;-69
2021/11/23 09:19:25;;;;;;;7.43;2.83;;;5.10;99.90;;;;;;4423026;28;657588;-69
2021/11/23 09:22:14;;;;;;;11.43;4.00;;;5.00;99.90;;;;;;4409057;28;656125;-70
2021/11/23 09:25:04;;;;;;;6.27;2.83;;;5.50;99.90;;;;;;4409129;28;657547;-69
2021/11/23 09:27:51;;;;;;;11.10;3.87;;;5.70;99.90;;;;;;4406418;28;655604;-69
2021/11/23 09:30:40;;;;;;;9.93;3.83;;;6.20;99.90;;;;;;4425880;28;657410;-69
2021/11/23 09:33:27;;;;;;;11.20;4.23;;;5.70;99.90;;;;;;4404915;28;657169;-69
2021/11/23 09:36:15;;;;;;;9.00;3.73;;;5.70;99.90;;;;;;4422314;28;656208;-69
2021/11/23 09:39:04;;;;;;;5.55;2.97;;;5.90;99.90;;;;;;4403350;28;656163;-69
2021/11/23 09:41:52;;;;;;;8.83;3.13;;;5.80;99.90;;;;;;4407624;28;655840;-69
2021/11/23 09:44:42;;;;;;;9.53;3.57;;;5.60;99.90;;;;;;4423277;28;655786;-70
2021/11/23 09:47:30;;;;;;;6.97;3.20;;;5.30;99.90;;;;;;4440972;28;655458;-69
2021/11/23 09:50:18;;;;;;;7.23;3.70;;;5.50;99.90;;;;;;4437165;28;656857;-71
2021/11/23 09:53:06;;;;;;;7.90;2.90;;;5.30;99.90;;;;;;4429445;28;656041;-70
2021/11/23 09:55:55;;;;;;;10.95;4.28;;;5.40;99.90;;;;;;4451768;28;656541;-69
2021/11/23 09:58:43;;;;;;;10.10;3.58;;;5.20;99.90;;;;;;4427698;28;657163;-70
2021/11/23 10:01:32;;;;;;;5.63;2.70;;;5.50;99.90;;;;;;4430197;28;657251;-71
2021/11/23 10:04:19;;;;;;;7.33;3.20;;;5.70;99.90;;;;;;4448345;28;655387;-70
2021/11/23 10:07:08;;;;;;;7.33;2.67;;;5.70;99.90;;;;;;4429542;28;655956;-69
2021/11/23 10:09:56;;;;;;;5.70;2.60;;;5.50;99.90;;;;;;4431763;28;655067;-70
2021/11/23 10:12:59;;;;;;;9.57;2.97;;;6.00;99.90;;;;;;4450027;28;656711;-70
2021/11/23 10:15:47;;;;;;;6.60;2.93;;;6.50;99.90;;;;;;4403546;28;656143;-70
2021/11/23 10:18:35;;;;;;;7.25;2.75;;;6.70;99.90;;;;;;4446373;28;655445;-71
2021/11/23 10:21:27;;;;;;;7.70;2.60;;;7.20;98.00;;;;;;4419399;28;657178;-70
2021/11/23 10:24:16;;;;;;;9.33;3.20;;;7.30;96.60;;;;;;4424348;28;655896;-69
2021/11/23 10:27:17;;;;;;;5.87;3.07;;;8.10;95.60;;;;;;4427082;28;656561;-71
2021/11/23 10:30:08;;;;;;;7.23;3.07;;;8.40;91.30;;;;;;4418246;28;656003;-71
2021/11/23 10:32:56;;;;;;;6.87;2.87;;;7.50;90.20;;;;;;4425385;28;656059;-70
2021/11/23 10:35:45;;;;;;;8.30;3.37;;;7.30;92.00;;;;;;4448144;28;656296;-70
2021/11/23 10:38:33;;;;;;;7.13;3.10;;;7.40;93.50;;;;;;4430087;28;656757;-70
2021/11/23 10:41:21;;;;;;;6.60;3.43;;;7.70;90.40;;;;;;4427896;28;655447;-70
2021/11/23 10:44:16;;;;;;;8.00;3.63;;;8.60;90.60;;;;;;4446349;28;656475;-70
2021/11/23 10:47:07;;;;;;;8.33;3.77;;;8.60;84.20;;;;;;4400008;28;655262;-70
2021/11/23 10:49:55;;;;;;;9.40;3.57;;;8.10;80.80;;;;;;4403313;28;655638;-69
2021/11/23 10:52:45;;;;;;;8.83;4.00;;;7.60;84.50;;;;;;4409118;28;656426;-70
2021/11/23 10:55:35;;;;;;;9.87;4.17;;;7.90;81.70;;;;;;4399956;28;656036;-70
2021/11/23 10:58:23;;;;;;;10.30;3.40;;;7.00;85.50;;;;;;4409199;28;656259;-70
2021/11/23 11:01:11;;;;;;;12.05;4.15;;;6.70;86.80;;;;;;4413203;28;656276;-71
2021/11/23 11:04:00;;;;;;;9.70;3.85;;;7.10;88.00;;;;;;4434059;28;657322;-70
2021/11/23 11:06:48;;;;;;;9.97;3.70;;;7.20;85.70;;;;;;4394087;28;657094;-69
2021/11/23 11:09:36;;;;;;;9.83;3.70;;;7.20;86.20;;;;;;4410943;28;655441;-70
2021/11/23 11:12:24;;;;;;;11.97;4.40;;;6.80;84.30;;;;;;4429412;28;656852;-70
2021/11/23 11:15:13;;;;;;;10.90;3.50;;;6.90;87.90;;;;;;4401060;28;656349;-68
2021/11/23 11:18:01;;;;;;;7.93;3.60;;;6.80;91.80;;;;;;4404626;28;656666;-70
2021/11/23 11:20:52;;;;;;;9.10;3.40;;;7.50;88.80;;;;;;4441068;28;655873;-69
2021/11/23 11:23:45;;;;;;;9.07;3.70;;;8.00;86.20;;;;;;4411326;28;655987;-68
2021/11/23 11:26:37;;;;;;;9.73;3.63;;;8.60;82.10;;;;;;4385028;28;655827;-69
2021/11/23 11:29:28;;;;;;;15.90;4.07;;;8.80;81.40;;;;;;4408225;28;656158;-69
2021/11/23 11:32:33;;;;;;;9.53;4.00;;;8.80;77.40;;;;;;4390329;28;656705;-69
2021/11/23 11:35:26;;;;;;;8.60;3.40;;;8.80;77.80;;;;;;4388816;28;655941;-69
2021/11/23 11:38:41;;;;;;;11.53;3.37;;;8.50;75.40;;;;;;4411023;28;657428;-69
2021/11/23 11:41:36;;;;;;;12.47;3.60;;;8.00;78.40;;;;;;4408529;28;657182;-68
2021/11/23 11:44:26;;;;;;;10.23;3.00;;;7.60;78.10;;;;;;4410392;28;657141;-69
2021/11/23 11:47:18;;;;;;;11.90;3.70;;;7.60;81.30;;;;;;4441602;28;657415;-68
2021/11/23 11:50:08;;;;;;;7.87;3.47;;;7.70;82.20;;;;;;4423972;28;656399;-68
2021/11/23 11:53:07;;;;;;;9.48;3.50;;;8.00;82.90;;;;;;4449804;28;655796;-68
2021/11/23 11:55:56;;;;;;;8.57;3.40;;;8.10;80.80;;;;;;4442299;27;655909;-68
2021/11/23 11:58:51;;;;;;;9.70;3.40;;;7.50;84.10;;;;;;4440985;28;656602;-69
2021/11/23 12:01:41;;;;;;;8.10;3.13;;;6.90;84.60;;;;;;4443144;28;655497;-68
2021/11/23 12:04:31;;;;;;;11.63;3.17;;;6.30;86.40;;;;;;4443641;28;656377;-69
2021/11/23 12:07:18;;;;;;;9.40;3.47;;;5.90;88.40;;;;;;4441052;27;657639;-68
2021/11/23 12:10:21;;;;;;;10.03;3.80;;;5.50;90.60;;;;;;4444831;27;655369;-69
2021/11/23 12:13:13;;;;;;;7.27;2.53;;;5.20;93.30;;;;;;4444449;27;656803;-69
2021/11/23 12:16:07;;;;;;;9.57;4.00;;;4.80;94.00;;;;;;4422622;27;656147;-69
2021/11/23 12:19:23;;;;;;;9.23;3.63;;;4.80;96.00;;;;;;4451331;27;656850;-69
2021/11/23 12:22:20;;;;;;;9.00;3.70;;;4.70;99.60;;;;;;4422915;27;656319;-70
2021/11/23 12:25:10;;;;;;;12.07;3.67;;;4.60;99.90;;;;;;4415040;27;656659;-68
2021/11/23 12:27:57;;;;;;;8.73;3.10;;;4.50;99.90;;;;;;4437116;27;658343;-68
2021/11/23 12:30:47;;;;;;;15.77;3.40;;;4.30;99.90;;;;;;4463515;27;656182;-69
2021/11/23 12:33:44;;;;;;;10.70;3.87;;;4.40;99.90;;;;;;4465121;27;656851;-69
2021/11/23 12:36:34;;;;;;;9.83;3.70;;;4.40;99.90;;;;;;4446607;27;656506;-70
2021/11/23 12:39:23;;;;;;;17.10;3.97;;;4.40;99.90;;;;;;4444733;27;655309;-69
2021/11/23 12:42:12;;;;;;;11.90;3.90;;;4.60;99.90;;;;;;4445359;27;656617;-70
2021/11/23 12:44:59;;;;;;;11.47;3.90;;;4.80;99.90;;;;;;4464746;27;656863;-69
2021/11/23 12:47:50;;;;;;;4.67;2.27;;;4.90;99.90;;;;;;4446813;27;657645;-70
2021/11/23 12:50:39;;;;;;;10.10;3.37;;;4.90;99.90;;;;;;4448124;27;655347;-69
2021/11/23 12:53:26;;;;;;;9.33;3.60;;;4.80;99.90;;;;;;4440780;27;656691;-70
2021/11/23 12:56:14;;;;;;;8.47;3.60;;;4.70;99.90;;;;;;4462187;27;656378;-70
2021/11/23 12:59:02;;;;;;;9.33;3.63;;;4.60;99.90;;;;;;4440763;28;655968;-70
2021/11/23 13:01:49;;;;;;;9.20;3.73;;;4.60;99.90;;;;;;4465449;28;655419;-70
2021/11/23 13:04:39;;;;;;;10.77;3.60;;;4.50;99.90;;;;;;4444085;27;655250;-69
2021/11/23 13:07:28;;;;;;;9.00;2.80;;;4.60;99.90;;;;;;4445321;28;657340;-69
2021/11/23 13:10:17;;;;;;;7.97;2.60;;;4.30;99.90;;;;;;4448310;28;655370;-70
2021/11/23 13:13:06;;;;;;;10.17;3.30;;;4.20;99.90;;;;;;4461872;28;656088;-71
2021/11/23 13:15:55;;;;;;;8.63;3.25;;;4.20;99.90;;;;;;4439647;27;657392;-70
2021/11/23 13:18:43;;;;;;;10.20;3.60;;;4.30;99.90;;;;;;4437415;28;656192;-70
2021/11/23 13:21:32;;;;;;;8.00;3.20;;;4.30;99.90;;;;;;4448588;27;656850;-70
2021/11/23 13:24:20;;;;;;;7.03;2.58;;;4.40;99.90;;;;;;4464908;28;655960;-70
2021/11/23 13:27:08;;;;;;;8.60;3.40;;;4.40;99.90;;;;;;4449790;27;657653;-69
2021/11/23 13:29:56;;;;;;;9.43;3.47;;;4.40;99.90;;;;;;4452708;27;655337;-70
2021/11/23 13:32:45;;;;;;;6.90;3.07;;;4.30;99.90;;;;;;4466974;27;656948;-69
2021/11/23 13:35:33;;;;;;;6.97;3.40;;;4.20;99.90;;;;;;4445976;27;656830;-68
2021/11/23 13:38:37;;;;;;;11.20;4.33;;;4.20;99.90;;;;;;4454534;28;655769;-69
2021/11/23 13:41:30;;;;;;;9.00;4.20;;;4.10;99.90;;;;;;4442731;27;656769;-69
2021/11/23 13:44:24;;;;;;;7.30;3.40;;;3.90;99.90;;;;;;4444179;27;656301;-69
2021/11/23 13:47:18;;;;;;;5.63;2.77;;;3.90;99.90;;;;;;4450126;27;655751;-69
2021/11/23 13:50:07;;;;;;;8.07;3.80;;;3.80;99.90;;;;;;4438297;27;655640;-69
2021/11/23 13:52:54;;;;;;;8.20;3.50;;;3.80;99.90;;;;;;4465408;27;655506;-69
2021/11/23 13:55:43;;;;;;;11.33;4.13;;;3.80;99.90;;;;;;4445413;27;656021;-69
2021/11/23 13:58:31;;;;;;;12.73;4.60;;;3.70;99.90;;;;;;4449179;27;656729;-69
2021/11/23 14:01:19;;;;;;;14.23;4.93;;;3.70;99.90;;;;;;4466014;27;657486;-69
2021/11/23 14:04:15;;;;;;;12.10;4.57;;;3.70;99.90;;;;;;4442731;28;657104;-68
2021/11/23 14:07:13;;;;;;;10.27;5.03;;;3.70;99.90;;;;;;4440341;28;656216;-69
2021/11/23 14:10:04;;;;;;;8.60;4.00;;;3.70;99.90;;;;;;4425016;27;657221;-69
2021/11/23 14:12:53;;;;;;;12.83;4.97;;;3.60;99.90;;;;;;4450198;27;655652;-70
2021/11/23 14:15:41;;;;;;;13.25;5.10;;;3.60;99.90;;;;;;4451009;27;656606;-70
2021/11/23 14:18:29;;;;;;;12.80;4.53;;;3.60;99.90;;;;;;4468977;27;657946;-69
2021/11/23 14:21:18;;;;;;;15.40;5.70;;;3.70;99.90;;;;;;4452210;27;659177;-69
2021/11/23 14:24:06;;;;;;;6.20;2.73;;;3.60;99.90;;;;;;4455613;27;657015;-70
2021/11/23 14:26:53;;;;;;;10.20;4.73;;;3.60;99.90;;;;;;4476979;27;656217;-69
2021/11/23 14:29:43;;;;;;;10.17;3.73;;;3.60;99.90;;;;;;4451253;27;656572;-70